sensor_id;sensor_type;location;lat;lon;timestamp;temperature;humidity
45315;SHT31;31051;51.540;5.852;2023-04-24T00:10:15;9.6;89.2
45315;SHT31;31051;51.540;5.852;2023-04-24T00:23:14;9.6;89.4
45315;SHT31;31051;51.540;5.852;2023-04-24T00:36:13;9.5;88.2
45315;SHT31;31051;51.540;5.852;2023-04-24T00:49:12;9.4;87.5
45315;SHT31;31051;51.540;5.852;2023-04-24T01:02:12;9.4;87.1
45315;SHT31;31051;51.540;5.852;2023-04-24T01:15:11;9.1;88.5
45315;SHT31;31051;51.540;5.852;2023-04-24T01:28:10;9.1;88.2
45315;SHT31;31051;51.540;5.852;2023-04-24T01:41:09;9.1;88.3
45315;SHT31;31051;51.540;5.852;2023-04-24T01:54:09;9.0;88.6
45315;SHT31;31051;51.540;5.852;2023-04-24T02:07:08;9.0;88.9
45315;SHT31;31051;51.540;5.852;2023-04-24T02:20:07;8.9;89.4
45315;SHT31;31051;51.540;5.852;2023-04-24T02:33:07;9.0;89.3
45315;SHT31;31051;51.540;5.852;2023-04-24T02:46:06;9.0;88.8
45315;SHT31;31051;51.540;5.852;2023-04-24T02:59:05;8.9;88.7
45315;SHT31;31051;51.540;5.852;2023-04-24T03:12:04;9.0;88.8
45315;SHT31;31051;51.540;5.852;2023-04-24T03:25:04;9.0;87.4
45315;SHT31;31051;51.540;5.852;2023-04-24T03:38:03;9.0;86.2
45315;SHT31;31051;51.540;5.852;2023-04-24T03:51:02;8.9;87.1
45315;SHT31;31051;51.540;5.852;2023-04-24T04:04:02;8.9;86.4
45315;SHT31;31051;51.540;5.852;2023-04-24T04:17:01;8.9;86.1
45315;SHT31;31051;51.540;5.852;2023-04-24T04:30:00;8.9;85.7
45315;SHT31;31051;51.540;5.852;2023-04-24T04:42:59;8.8;86.8
45315;SHT31;31051;51.540;5.852;2023-04-24T04:55:59;8.7;87.8
45315;SHT31;31051;51.540;5.852;2023-04-24T05:08:58;8.5;88.5
45315;SHT31;31051;51.540;5.852;2023-04-24T05:21:57;8.4;89.4
45315;SHT31;31051;51.540;5.852;2023-04-24T05:34:57;8.3;90.1
45315;SHT31;31051;51.540;5.852;2023-04-24T05:47:56;8.3;90.4
45315;SHT31;31051;51.540;5.852;2023-04-24T06:00:55;8.4;90.3
45315;SHT31;31051;51.540;5.852;2023-04-24T06:13:54;8.4;89.7
45315;SHT31;31051;51.540;5.852;2023-04-24T06:26:54;8.3;90.2
45315;SHT31;31051;51.540;5.852;2023-04-24T06:39:53;8.4;89.7
45315;SHT31;31051;51.540;5.852;2023-04-24T06:52:52;8.5;90.2
45315;SHT31;31051;51.540;5.852;2023-04-24T07:05:51;8.4;89.8
45315;SHT31;31051;51.540;5.852;2023-04-24T07:18:51;8.4;89.1
45315;SHT31;31051;51.540;5.852;2023-04-24T07:31:50;8.5;90.0
45315;SHT31;31051;51.540;5.852;2023-04-24T07:44:49;8.7;90.2
45315;SHT31;31051;51.540;5.852;2023-04-24T07:57:48;8.4;88.7
45315;SHT31;31051;51.540;5.852;2023-04-24T08:10:48;8.2;88.3
45315;SHT31;31051;51.540;5.852;2023-04-24T08:23:47;8.3;88.6
45315;SHT31;31051;51.540;5.852;2023-04-24T08:36:46;8.3;89.6
45315;SHT31;31051;51.540;5.852;2023-04-24T08:49:45;8.3;89.4
45315;SHT31;31051;51.540;5.852;2023-04-24T09:02:45;8.3;88.4
45315;SHT31;31051;51.540;5.852;2023-04-24T09:15:44;8.5;88.3
45315;SHT31;31051;51.540;5.852;2023-04-24T09:28:43;8.6;86.2
45315;SHT31;31051;51.540;5.852;2023-04-24T09:41:42;8.7;86.6
45315;SHT31;31051;51.540;5.852;2023-04-24T09:54:42;9.3;85.1
45315;SHT31;31051;51.540;5.852;2023-04-24T10:07:41;9.6;80.5
45315;SHT31;31051;51.540;5.852;2023-04-24T10:20:40;9.0;80.2
45315;SHT31;31051;51.540;5.852;2023-04-24T10:33:40;9.1;81.2
45315;SHT31;31051;51.540;5.852;2023-04-24T10:46:39;9.9;79.5
45315;SHT31;31051;51.540;5.852;2023-04-24T10:59:38;9.8;76.8
45315;SHT31;31051;51.540;5.852;2023-04-24T11:12:37;9.5;73.8
45315;SHT31;31051;51.540;5.852;2023-04-24T11:25:37;9.5;75.8
45315;SHT31;31051;51.540;5.852;2023-04-24T11:38:36;9.1;73.8
45315;SHT31;31051;51.540;5.852;2023-04-24T11:51:35;9.7;74.3
45315;SHT31;31051;51.540;5.852;2023-04-24T12:04:34;9.9;73.7
45315;SHT31;31051;51.540;5.852;2023-04-24T12:17:34;9.8;72.5
45315;SHT31;31051;51.540;5.852;2023-04-24T12:30:33;9.7;75.6
45315;SHT31;31051;51.540;5.852;2023-04-24T12:43:32;9.7;76.9
45315;SHT31;31051;51.540;5.852;2023-04-24T12:56:31;10.2;75.9
45315;SHT31;31051;51.540;5.852;2023-04-24T13:09:31;10.1;72.6
45315;SHT31;31051;51.540;5.852;2023-04-24T13:22:30;9.8;73.5
45315;SHT31;31051;51.540;5.852;2023-04-24T13:35:28;9.2;78.7
45315;SHT31;31051;51.540;5.852;2023-04-24T13:48:18;9.3;78.5
45315;SHT31;31051;51.540;5.852;2023-04-24T14:01:17;9.9;77.3
45315;SHT31;31051;51.540;5.852;2023-04-24T14:14:16;9.2;77.6
45315;SHT31;31051;51.540;5.852;2023-04-24T14:27:15;9.0;81.1
45315;SHT31;31051;51.540;5.852;2023-04-24T14:40:15;9.6;78.7
45315;SHT31;31051;51.540;5.852;2023-04-24T14:53:14;10.0;72.8
45315;SHT31;31051;51.540;5.852;2023-04-24T15:06:13;10.4;73.9
45315;SHT31;31051;51.540;5.852;2023-04-24T15:19:12;10.5;71.7
45315;SHT31;31051;51.540;5.852;2023-04-24T15:32:12;10.3;71.7
45315;SHT31;31051;51.540;5.852;2023-04-24T15:45:11;8.6;79.6
45315;SHT31;31051;51.540;5.852;2023-04-24T15:58:10;8.8;77.6
45315;SHT31;31051;51.540;5.852;2023-04-24T16:11:10;9.0;76.9
45315;SHT31;31051;51.540;5.852;2023-04-24T16:24:09;9.6;74.1
45315;SHT31;31051;51.540;5.852;2023-04-24T16:37:08;9.9;72.4
45315;SHT31;31051;51.540;5.852;2023-04-24T16:50:07;10.0;72.6
45315;SHT31;31051;51.540;5.852;2023-04-24T17:03:07;10.0;68.4
45315;SHT31;31051;51.540;5.852;2023-04-24T17:16:06;9.9;68.6
45315;SHT31;31051;51.540;5.852;2023-04-24T17:29:05;9.9;69.8
45315;SHT31;31051;51.540;5.852;2023-04-24T17:42:05;9.6;73.3
45315;SHT31;31051;51.540;5.852;2023-04-24T17:55:04;9.3;70.4
45315;SHT31;31051;51.540;5.852;2023-04-24T18:08:03;8.9;71.6
45315;SHT31;31051;51.540;5.852;2023-04-24T18:21:02;8.6;72.8
45315;SHT31;31051;51.540;5.852;2023-04-24T18:34:02;8.5;73.2
45315;SHT31;31051;51.540;5.852;2023-04-24T18:47:01;8.3;74.3
45315;SHT31;31051;51.540;5.852;2023-04-24T19:00:00;8.2;75.5
45315;SHT31;31051;51.540;5.852;2023-04-24T19:12:59;8.0;76.7
45315;SHT31;31051;51.540;5.852;2023-04-24T19:25:59;7.6;78.4
45315;SHT31;31051;51.540;5.852;2023-04-24T19:38:58;7.4;78.7
45315;SHT31;31051;51.540;5.852;2023-04-24T19:51:57;7.1;78.8
45315;SHT31;31051;51.540;5.852;2023-04-24T20:04:56;6.8;80.0
45315;SHT31;31051;51.540;5.852;2023-04-24T20:17:56;6.5;81.0
45315;SHT31;31051;51.540;5.852;2023-04-24T20:30:55;6.2;81.7
45315;SHT31;31051;51.540;5.852;2023-04-24T20:43:54;6.2;81.4
45315;SHT31;31051;51.540;5.852;2023-04-24T20:56:53;6.1;81.6
45315;SHT31;31051;51.540;5.852;2023-04-24T21:09:52;5.9;82.1
45315;SHT31;31051;51.540;5.852;2023-04-24T21:22:52;5.8;82.3
45315;SHT31;31051;51.540;5.852;2023-04-24T21:35:51;5.9;82.2
45315;SHT31;31051;51.540;5.852;2023-04-24T21:48:50;5.8;82.6
45315;SHT31;31051;51.540;5.852;2023-04-24T22:01:49;5.6;83.0
45315;SHT31;31051;51.540;5.852;2023-04-24T22:14:49;5.7;83.6
45315;SHT31;31051;51.540;5.852;2023-04-24T22:40:47;5.5;84.7
45315;SHT31;31051;51.540;5.852;2023-04-24T22:53:46;5.4;85.2
45315;SHT31;31051;51.540;5.852;2023-04-24T23:06:46;5.5;85.5
45315;SHT31;31051;51.540;5.852;2023-04-24T23:19:45;5.8;85.7
45315;SHT31;31051;51.540;5.852;2023-04-24T23:32:44;6.0;84.9
45315;SHT31;31051;51.540;5.852;2023-04-24T23:45:43;6.2;84.3
45315;SHT31;31051;51.540;5.852;2023-04-24T23:58:42;6.4;84.5
